FYKT/KMP METAR and TAF weather

Enter ICAO airport designator
Station Type Date Time Source
FYKT METAR 2021/10/24 22:00 UTC NOAA

FYKT 242200Z AUTO /////KT //// // ////// 19/M01 Q1019


Station Type Date Time Source
FYKT Decoded METAR 2021/10/24 22:00 UTC NOAA

Keetmanshoop, Namibia (FYKT) 26-32S 018-07E 1100M
Oct 24, 2021 - 06:00 PM EDT / 2021.10.24 2200 UTC
Temperature: 66 F (19 C)
Dew Point: 30 F (-1 C)
Relative Humidity: 25%
Pressure (altimeter): 30.09 in. Hg (1019 hPa)
ob: FYKT 242200Z AUTO /////KT //// // ////// 19/M01 Q1019
cycle: 22

Station Type Date Time Source
FYKT TAF 2021/10/24 18:33 UTC NOAA

TAF FYKT 241600Z 2418/2518 10013KT CAVOK

Example: see airport list